Betty L — WDF8115 — position and weather

sailwx.info

Track history (hours):
 
Tides and Currents Weather Stations Pressure Air Temp Water Temp Dewpoint Dewpoint Depression Visibility Wind Speed Wind Dir Waves Ship Positions

Betty L

Owner: J.A.M. Marine Services, LLC, Houston, TX. More information available from US FCC via Universal Licensing System and Coast Guard Vessel Documentation Center.

Last reported at 2017-Dec-07 19:29 UTC. Time now 2017-Dec-14 16:56 UTC.
Position N 29°30' W 094°52'.

Length 92 m.

Type: Other ship. MMSI: 367491540.

Date/timePositionNaut miles runAvg speedWind from/ knotsBaromVisibWave heightAir tempDewpointWater temp
2017-Dec-07 19:29N 29°30' W 094°52'4 8.0
2017-Dec-07 19:00N 29°33' W 094°55'4 8.0
2017-Dec-07 18:30N 29°36' W 094°57'4 7.9
2017-Dec-07 18:00N 29°40' W 094°59'4 6.6
2017-Dec-07 17:22N 29°42' W 095°03'0 0.5
2017-Dec-07 17:00N 29°42' W 095°03'5 3.2
2017-Dec-07 15:27N 29°47' W 095°04'  
2017-Dec-03 10:34N 29°27' W 094°51'2 8.3
2017-Dec-03 10:22N 29°29' W 094°51'3 8.1
2017-Dec-03 10:00N 29°31' W 094°53'4 8.2
2017-Dec-03 09:30N 29°34' W 094°56'4 7.5
2017-Dec-03 09:00N 29°38' W 094°58'4 8.1
2017-Dec-03 08:30N 29°42' W 094°60'4 7.4
2017-Dec-03 07:58N 29°44' W 095°03'3 2.7
2017-Dec-03 06:41N 29°47' W 095°05'1 2.8
2017-Dec-03 06:30N 29°47' W 095°04'3 6.0
2017-Dec-03 06:00N 29°44' W 095°03'2 4.9
2017-Dec-03 05:30N 29°42' W 095°02'1 1.4
2017-Dec-03 04:59N 29°42' W 095°03'1 2.4
2017-Dec-03 04:30N 29°43' W 095°01'3 5.7
2017-Dec-03 04:00N 29°45' W 095°04'2 4.8
2017-Dec-03 03:30N 29°46' W 095°06'0 0.3
2017-Dec-03 02:54N 29°46' W 095°06'0 0.0
2017-Dec-03 02:30N 29°46' W 095°06'0 0.0
2017-Dec-03 01:51N 29°46' W 095°06'0 0.0
2017-Dec-03 01:27N 29°46' W 095°06'0 0.0
2017-Dec-03 00:45N 29°46' W 095°06'0 0.0
2017-Dec-02 22:48N 29°46' W 095°06'0 0.0
2017-Dec-02 18:41N 29°46' W 095°06'1 2.8
2017-Dec-02 18:27N 29°45' W 095°06'2 0.8
2017-Dec-02 15:54N 29°47' W 095°05'0 0.0
2017-Dec-02 14:28N 29°47' W 095°05'1 0.9
2017-Dec-02 13:00N 29°46' W 095°05'3 5.2
2017-Dec-02 12:30N 29°44' W 095°03'3 6.9
2017-Dec-02 12:00N 29°42' W 094°60'4 8.0
2017-Dec-02 11:30N 29°38' W 094°58'4 8.2
2017-Dec-02 11:00N 29°35' W 094°56'4 8.2
2017-Dec-02 10:30N 29°31' W 094°53'1 0.0
2017-Nov-30 21:47N 29°30' W 094°52'2 6.9
2017-Nov-30 21:30N 29°32' W 094°54'3 6.6
2017-Nov-30 21:00N 29°35' W 094°56'4 7.4
2017-Nov-30 20:30N 29°38' W 094°58'4 7.5
2017-Nov-30 20:01N 29°41' W 094°59'8 0.9
2017-Nov-30 11:19N 29°47' W 095°05'0 0.0
2017-Nov-30 09:58N 29°47' W 095°05'0 0.0
2017-Nov-30 09:22N 29°47' W 095°05'0 0.0
2017-Nov-30 08:58N 29°47' W 095°05'0 0.0
2017-Nov-30 07:52N 29°47' W 095°05'0 0.0
2017-Nov-30 07:28N 29°47' W 095°05'0 0.0
2017-Nov-30 06:40N 29°47' W 095°05'0 0.0
2017-Nov-30 06:28N 29°47' W 095°05'0 0.0
2017-Nov-28 15:49N 29°47' W 095°05'2 0.5
2017-Nov-28 12:18N 29°46' W 095°04'1 2.7
2017-Nov-28 11:58N 29°45' W 095°04'2 4.0
2017-Nov-28 11:30N 29°44' W 095°02'2 1.2
2017-Nov-28 10:04N 29°42' W 095°03'0 0.0
2017-Nov-28 08:13N 29°42' W 095°03'0 0.0
2017-Nov-28 07:52N 29°42' W 095°03'0 0.0
2017-Nov-28 07:22N 29°42' W 095°03'0 0.0
2017-Nov-28 02:00N 29°42' W 095°03'5 3.8
2017-Nov-28 00:45N 29°47' W 095°05'  
Track history (hours):
 
Tides and Currents Weather Stations Pressure Air Temp Water Temp Dewpoint Dewpoint Depression Visibility Wind Speed Wind Dir Waves Ship Positions

Betty L

Owner: J.A.M. Marine Services, LLC, Houston, TX. More information available from US FCC via Universal Licensing System and Coast Guard Vessel Documentation Center.

Last reported at 2017-Dec-07 19:29 UTC. Time now 2017-Dec-14 16:56 UTC.
Position N 29°30' W 094°52'.

Length 92 m.

Type: Other ship. MMSI: 367491540.

Date/timePositionNaut miles runAvg speedWind from/ knotsBaromVisibWave heightAir tempDewpointWater temp
2017-Dec-07 19:29N 29°30' W 094°52'4 8.0
2017-Dec-07 19:00N 29°33' W 094°55'4 8.0
2017-Dec-07 18:30N 29°36' W 094°57'4 7.9
2017-Dec-07 18:00N 29°40' W 094°59'4 6.6
2017-Dec-07 17:22N 29°42' W 095°03'0 0.5
2017-Dec-07 17:00N 29°42' W 095°03'5 3.2
2017-Dec-07 15:27N 29°47' W 095°04'  
2017-Dec-03 10:34N 29°27' W 094°51'2 8.3
2017-Dec-03 10:22N 29°29' W 094°51'3 8.1
2017-Dec-03 10:00N 29°31' W 094°53'4 8.2
2017-Dec-03 09:30N 29°34' W 094°56'4 7.5
2017-Dec-03 09:00N 29°38' W 094°58'4 8.1
2017-Dec-03 08:30N 29°42' W 094°60'4 7.4
2017-Dec-03 07:58N 29°44' W 095°03'3 2.7
2017-Dec-03 06:41N 29°47' W 095°05'1 2.8
2017-Dec-03 06:30N 29°47' W 095°04'3 6.0
2017-Dec-03 06:00N 29°44' W 095°03'2 4.9
2017-Dec-03 05:30N 29°42' W 095°02'1 1.4
2017-Dec-03 04:59N 29°42' W 095°03'1 2.4
2017-Dec-03 04:30N 29°43' W 095°01'3 5.7
2017-Dec-03 04:00N 29°45' W 095°04'2 4.8
2017-Dec-03 03:30N 29°46' W 095°06'0 0.3
2017-Dec-03 02:54N 29°46' W 095°06'0 0.0
2017-Dec-03 02:30N 29°46' W 095°06'0 0.0
2017-Dec-03 01:51N 29°46' W 095°06'0 0.0
2017-Dec-03 01:27N 29°46' W 095°06'0 0.0
2017-Dec-03 00:45N 29°46' W 095°06'0 0.0
2017-Dec-02 22:48N 29°46' W 095°06'0 0.0
2017-Dec-02 18:41N 29°46' W 095°06'1 2.8
2017-Dec-02 18:27N 29°45' W 095°06'2 0.8
2017-Dec-02 15:54N 29°47' W 095°05'0 0.0
2017-Dec-02 14:28N 29°47' W 095°05'1 0.9
2017-Dec-02 13:00N 29°46' W 095°05'3 5.2
2017-Dec-02 12:30N 29°44' W 095°03'3 6.9
2017-Dec-02 12:00N 29°42' W 094°60'4 8.0
2017-Dec-02 11:30N 29°38' W 094°58'4 8.2
2017-Dec-02 11:00N 29°35' W 094°56'4 8.2
2017-Dec-02 10:30N 29°31' W 094°53'1 0.0
2017-Nov-30 21:47N 29°30' W 094°52'2 6.9
2017-Nov-30 21:30N 29°32' W 094°54'3 6.6
2017-Nov-30 21:00N 29°35' W 094°56'4 7.4
2017-Nov-30 20:30N 29°38' W 094°58'4 7.5
2017-Nov-30 20:01N 29°41' W 094°59'8 0.9
2017-Nov-30 11:19N 29°47' W 095°05'0 0.0
2017-Nov-30 09:58N 29°47' W 095°05'0 0.0
2017-Nov-30 09:22N 29°47' W 095°05'0 0.0
2017-Nov-30 08:58N 29°47' W 095°05'0 0.0
2017-Nov-30 07:52N 29°47' W 095°05'0 0.0
2017-Nov-30 07:28N 29°47' W 095°05'0 0.0
2017-Nov-30 06:40N 29°47' W 095°05'0 0.0
2017-Nov-30 06:28N 29°47' W 095°05'0 0.0
2017-Nov-28 15:49N 29°47' W 095°05'2 0.5
2017-Nov-28 12:18N 29°46' W 095°04'1 2.7
2017-Nov-28 11:58N 29°45' W 095°04'2 4.0
2017-Nov-28 11:30N 29°44' W 095°02'2 1.2
2017-Nov-28 10:04N 29°42' W 095°03'0 0.0
2017-Nov-28 08:13N 29°42' W 095°03'0 0.0
2017-Nov-28 07:52N 29°42' W 095°03'0 0.0
2017-Nov-28 07:22N 29°42' W 095°03'0 0.0
2017-Nov-28 02:00N 29°42' W 095°03'5 3.8
2017-Nov-28 00:45N 29°47' W 095°05'  

Dump ship's entire track history